Time;durP1;ratioP1;P1;durP2;ratioP2;P2;SDS_P1;SDS_P2;PMS_P1;PMS_P2;Temp;Humidity;BMP_temperature;BMP_pressure;BME280_temperature;BME280_humidity;BME280_pressure;Samples;Min_cycle;Max_cycle;Signal;HPM_P1;HPM_P2
2022/05/28 00:01:52;;;;;;;17.67;11.20;;;;;;;;;;4994741;28;20580;-64
2022/05/28 00:04:18;;;;;;;16.20;11.00;;;;;;;;;;4994579;28;20191;-68
2022/05/28 00:06:45;;;;;;;17.38;10.07;;;;;;;;;;4994632;28;20385;-66
2022/05/28 00:09:11;;;;;;;13.90;10.63;;;;;;;;;;4994894;28;20042;-65
2022/05/28 00:11:41;;;;;;;18.80;12.02;;;;;;;;;;4995123;28;20090;-66
2022/05/28 00:14:08;;;;;;;19.70;10.43;;;;;;;;;;4994644;28;20042;-68
2022/05/28 00:16:36;;;;;;;13.93;10.88;;;;;;;;;;4994759;28;20450;-67
2022/05/28 00:19:03;;;;;;;15.48;11.38;;;;;;;;;;4994547;28;20034;-66
2022/05/28 00:21:28;;;;;;;14.93;10.68;;;;;;;;;;4994423;28;20038;-69
2022/05/28 00:23:55;;;;;;;17.25;11.38;;;;;;;;;;4994218;28;20040;-70
2022/05/28 00:26:22;;;;;;;13.90;10.23;;;;;;;;;;4994347;28;20038;-71
2022/05/28 00:28:48;;;;;;;18.30;11.40;;;;;;;;;;4993126;28;20073;-69
2022/05/28 00:31:14;;;;;;;14.23;11.00;;;;;;;;;;4994552;28;20477;-65
2022/05/28 00:33:40;;;;;;;15.43;10.50;;;;;;;;;;4994529;28;20030;-65
2022/05/28 00:36:09;;;;;;;14.30;10.90;;;;;;;;;;4994181;28;20034;-67
2022/05/28 00:38:36;;;;;;;14.82;10.60;;;;;;;;;;4993993;28;20030;-66
2022/05/28 00:41:02;;;;;;;15.80;11.13;;;;;;;;;;4993960;28;20030;-65
2022/05/28 00:43:29;;;;;;;17.83;11.77;;;;;;;;;;4994218;28;20042;-65
2022/05/28 00:46:01;;;;;;;17.40;11.23;;;;;;;;;;4994256;28;20477;-67
2022/05/28 00:48:32;;;;;;;15.73;10.30;;;;;;;;;;4994072;28;20030;-67
2022/05/28 00:51:05;;;;;;;15.23;10.65;;;;;;;;;;4993818;28;20049;-69
2022/05/28 00:53:32;;;;;;;;;;;;;;;;;;4994105;28;20042;-66
2022/05/28 00:55:57;;;;;;;18.15;10.32;;;;;;;;;;4993744;28;19924;-68
2022/05/28 00:58:23;;;;;;;16.90;10.93;;;;;;;;;;4993582;28;20042;-69
2022/05/28 01:00:49;;;;;;;17.00;10.60;;;;;;;;;;4993300;28;20069;-67
2022/05/28 01:03:29;;;;;;;16.88;10.82;;;;;;;;;;4993330;28;20393;-66
2022/05/28 01:06:15;;;;;;;15.93;9.93;;;;;;;;;;4993209;28;20041;-66
2022/05/28 01:08:48;;;;;;;13.35;10.27;;;;;;;;;;4982617;28;20101;-67
2022/05/28 01:11:22;;;;;;;14.55;9.98;;;;;;;;;;4993555;28;20045;-68
2022/05/28 01:14:04;;;;;;;17.08;11.10;;;;;;;;;;4992199;28;20038;-65
2022/05/28 01:16:41;;;;;;;12.73;10.68;;;;;;;;;;4993259;28;20042;-66
2022/05/28 01:19:22;;;;;;;17.83;10.20;;;;;;;;;;4993542;28;20049;-65
2022/05/28 01:21:59;;;;;;;15.23;10.23;;;;;;;;;;4992844;28;20053;-66
2022/05/28 01:24:33;;;;;;;17.52;11.63;;;;;;;;;;4993923;28;20033;-66
2022/05/28 01:27:10;;;;;;;13.65;10.55;;;;;;;;;;4993616;28;20046;-70
2022/05/28 01:30:01;;;;;;;18.23;11.23;;;;;;;;;;4993675;28;20046;-68
2022/05/28 01:32:27;;;;;;;13.90;10.93;;;;;;;;;;4993680;28;20074;-68
2022/05/28 01:34:54;;;;;;;18.25;10.88;;;;;;;;;;4993510;28;20393;-68
2022/05/28 01:37:21;;;;;;;15.27;10.10;;;;;;;;;;4993223;28;20042;-70
2022/05/28 01:39:49;;;;;;;14.82;10.82;;;;;;;;;;4993554;28;20050;-69
2022/05/28 01:42:17;;;;;;;15.43;10.73;;;;;;;;;;4993616;28;20049;-65
2022/05/28 01:44:45;;;;;;;18.38;10.65;;;;;;;;;;4993211;28;20018;-65
2022/05/28 01:47:14;;;;;;;12.63;10.18;;;;;;;;;;4993426;28;20050;-66
2022/05/28 01:49:41;;;;;;;15.75;11.15;;;;;;;;;;4993548;28;20027;-70
2022/05/28 01:52:09;;;;;;;14.63;10.73;;;;;;;;;;4993172;28;20049;-71
2022/05/28 01:54:46;;;;;;;15.80;10.50;;;;;;;;;;4993341;28;20022;-68
2022/05/28 01:57:13;;;;;;;13.77;10.40;;;;;;;;;;4993163;28;20034;-67
2022/05/28 01:59:40;;;;;;;14.77;10.95;;;;;;;;;;4993038;28;20027;-67
2022/05/28 02:02:10;;;;;;;18.42;11.13;;;;;;;;;;4993253;28;20070;-68
2022/05/28 02:04:38;;;;;;;15.75;10.52;;;;;;;;;;4992697;28;20470;-69
2022/05/28 02:07:05;;;;;;;17.25;9.85;;;;;;;;;;4992690;28;20041;-68
2022/05/28 02:09:36;;;;;;;17.52;12.10;;;;;;;;;;4992788;28;20070;-68
2022/05/28 02:12:34;;;;;;;18.40;11.43;;;;;;;;;;4992928;28;20034;-69
2022/05/28 02:15:51;;;;;;;18.52;12.02;;;;;;;;;;4976832;28;20046;-69
2022/05/28 02:18:19;;;;;;;17.77;11.82;;;;;;;;;;4963788;28;20494;-69
2022/05/28 02:21:03;;;;;;;19.52;11.98;;;;;;;;;;4975018;28;20106;-70
2022/05/28 02:23:36;;;;;;;22.95;13.85;;;;;;;;;;4992518;28;20118;-65
2022/05/28 02:26:19;;;;;;;21.27;14.43;;;;;;;;;;4986074;28;20437;-67
2022/05/28 02:28:46;;;;;;;19.50;12.00;;;;;;;;;;4992837;28;20046;-68
2022/05/28 02:31:19;;;;;;;18.23;11.10;;;;;;;;;;4992024;28;20030;-72
2022/05/28 02:33:46;;;;;;;18.85;11.68;;;;;;;;;;4992362;28;20037;-71
2022/05/28 02:36:14;;;;;;;14.07;11.05;;;;;;;;;;4991992;28;20030;-67
2022/05/28 02:38:40;;;;;;;15.10;11.88;;;;;;;;;;4990781;28;20069;-69
2022/05/28 02:41:06;;;;;;;19.92;12.52;;;;;;;;;;4972499;28;20039;-70
2022/05/28 02:43:32;;;;;;;22.52;12.57;;;;;;;;;;4971339;28;20101;-71
2022/05/28 02:45:59;;;;;;;17.67;12.20;;;;;;;;;;4980416;28;20026;-70
2022/05/28 02:48:25;;;;;;;19.05;12.38;;;;;;;;;;4979829;28;20039;-72
2022/05/28 02:50:50;;;;;;;15.57;12.15;;;;;;;;;;4981780;28;20034;-69
2022/05/28 02:53:16;;;;;;;16.83;12.13;;;;;;;;;;4980026;28;20391;-70
2022/05/28 02:55:42;;;;;;;23.85;11.75;;;;;;;;;;4984702;28;20022;-70
2022/05/28 02:58:08;;;;;;;21.08;13.95;;;;;;;;;;4981612;28;20398;-69
2022/05/28 03:00:34;;;;;;;24.15;14.43;;;;;;;;;;4985401;28;20065;-67
2022/05/28 03:03:00;;;;;;;23.23;13.98;;;;;;;;;;4991561;28;20081;-70
2022/05/28 03:05:26;;;;;;;19.60;13.43;;;;;;;;;;4983703;28;20465;-70
2022/05/28 03:07:52;;;;;;;21.65;14.00;;;;;;;;;;4989011;28;20050;-69
2022/05/28 03:10:18;;;;;;;25.02;13.98;;;;;;;;;;4992070;28;20058;-70
2022/05/28 03:12:44;;;;;;;19.55;13.77;;;;;;;;;;4986945;28;20060;-69
2022/05/28 03:15:11;;;;;;;16.08;12.30;;;;;;;;;;4994632;28;20625;-71
2022/05/28 03:17:37;;;;;;;13.13;11.00;;;;;;;;;;4989714;28;20073;-71
2022/05/28 03:20:05;;;;;;;18.02;12.07;;;;;;;;;;4985321;28;20041;-67
2022/05/28 03:22:30;;;;;;;24.48;12.45;;;;;;;;;;4983851;28;20034;-70
2022/05/28 03:24:57;;;;;;;19.95;12.35;;;;;;;;;;4984032;28;20481;-69
2022/05/28 03:27:23;;;;;;;28.38;14.20;;;;;;;;;;4994707;28;20042;-67
2022/05/28 03:29:50;;;;;;;20.38;13.52;;;;;;;;;;4994432;28;20042;-69
2022/05/28 03:32:15;;;;;;;19.65;14.13;;;;;;;;;;4994392;28;20116;-67
2022/05/28 03:34:41;;;;;;;21.15;16.70;;;;;;;;;;4995019;28;20502;-68
2022/05/28 03:37:07;;;;;;;27.98;15.95;;;;;;;;;;4988306;28;20096;-69
2022/05/28 03:39:33;;;;;;;27.33;17.92;;;;;;;;;;4993167;28;20022;-71
2022/05/28 03:41:59;;;;;;;23.52;15.80;;;;;;;;;;4993538;28;20092;-70
2022/05/28 03:44:24;;;;;;;26.70;15.07;;;;;;;;;;4993584;28;20146;-71
2022/05/28 03:46:51;;;;;;;29.27;15.35;;;;;;;;;;4993383;28;20456;-71
2022/05/28 03:49:22;;;;;;;24.77;13.05;;;;;;;;;;4994877;28;20018;-70
2022/05/28 03:51:49;;;;;;;26.08;13.75;;;;;;;;;;4993700;28;20100;-70
2022/05/28 03:54:14;;;;;;;19.60;13.52;;;;;;;;;;4995097;28;20119;-71
2022/05/28 03:56:42;;;;;;;22.02;13.75;;;;;;;;;;4994509;28;20085;-73
2022/05/28 03:59:08;;;;;;;23.30;14.70;;;;;;;;;;4992914;28;20548;-67
2022/05/28 04:01:35;;;;;;;22.98;14.20;;;;;;;;;;4994459;28;20058;-68
2022/05/28 04:04:02;;;;;;;26.88;15.07;;;;;;;;;;4993826;28;20090;-72
2022/05/28 04:06:28;;;;;;;24.67;14.90;;;;;;;;;;4993000;28;20037;-69
2022/05/28 04:08:54;;;;;;;21.48;13.02;;;;;;;;;;4993410;28;20034;-73
2022/05/28 04:11:20;;;;;;;21.08;13.57;;;;;;;;;;4993765;28;20034;-70
2022/05/28 04:13:46;;;;;;;33.97;13.50;;;;;;;;;;4992717;28;20146;-71
2022/05/28 04:16:14;;;;;;;24.05;12.70;;;;;;;;;;4992712;28;20362;-67
2022/05/28 04:18:40;;;;;;;19.45;11.65;;;;;;;;;;4994871;28;20480;-71
2022/05/28 04:21:07;;;;;;;26.27;12.50;;;;;;;;;;4994835;28;20057;-67
2022/05/28 04:23:33;;;;;;;25.85;12.82;;;;;;;;;;4994809;28;20026;-72
2022/05/28 04:25:59;;;;;;;16.58;11.35;;;;;;;;;;4994824;28;20041;-68
2022/05/28 04:28:25;;;;;;;18.70;11.32;;;;;;;;;;4994524;28;20077;-71
2022/05/28 04:30:51;;;;;;;16.58;11.35;;;;;;;;;;4993759;28;20058;-74
2022/05/28 04:33:17;;;;;;;20.65;11.57;;;;;;;;;;5009459;28;20321;-69
2022/05/28 04:35:43;;;;;;;13.10;10.90;;;;;;;;;;4994062;28;20089;-73
2022/05/28 04:38:08;;;;;;;18.65;12.55;;;;;;;;;;4994152;28;20084;-67
2022/05/28 04:40:34;;;;;;;19.60;11.80;;;;;;;;;;4992578;28;20041;-67
2022/05/28 04:43:00;;;;;;;17.75;11.57;;;;;;;;;;4993009;28;20029;-70
2022/05/28 04:45:26;;;;;;;31.35;12.30;;;;;;;;;;4995413;28;20034;-65
2022/05/28 04:47:52;;;;;;;17.58;10.30;;;;;;;;;;4994771;28;20389;-68
2022/05/28 04:50:18;;;;;;;20.13;10.77;;;;;;;;;;4994370;28;20042;-67
2022/05/28 04:52:43;;;;;;;19.20;11.85;;;;;;;;;;4995202;28;20384;-68
2022/05/28 04:55:11;;;;;;;22.52;12.32;;;;;;;;;;4994968;28;20039;-65
2022/05/28 04:57:37;;;;;;;22.17;12.27;;;;;;;;;;4995168;28;20026;-66
2022/05/28 05:00:07;;;;;;;18.73;11.27;;;;;;;;;;4993260;28;20492;-67
2022/05/28 05:02:32;;;;;;;22.08;12.50;;;;;;;;;;4994315;28;20034;-65
2022/05/28 05:04:58;;;;;;;19.33;14.45;;;;;;;;;;4994081;28;20045;-65
2022/05/28 05:07:25;;;;;;;21.10;14.30;;;;;;;;;;4994781;28;20031;-65
2022/05/28 05:09:51;;;;;;;27.05;15.65;;;;;;;;;;4994625;28;20049;-67
2022/05/28 05:12:17;;;;;;;22.35;13.55;;;;;;;;;;4995033;28;20026;-64
2022/05/28 05:14:43;;;;;;;17.65;12.88;;;;;;;;;;4994489;28;20035;-65
2022/05/28 05:17:08;;;;;;;20.45;13.45;;;;;;;;;;4993151;28;20022;-67
2022/05/28 05:19:34;;;;;;;20.30;12.82;;;;;;;;;;4994874;28;20042;-69
2022/05/28 05:22:00;;;;;;;24.63;14.07;;;;;;;;;;4993941;28;20022;-65
2022/05/28 05:24:26;;;;;;;19.55;13.45;;;;;;;;;;4993144;28;20066;-69
2022/05/28 05:26:52;;;;;;;22.48;13.85;;;;;;;;;;4993215;28;20027;-67
2022/05/28 05:29:18;;;;;;;23.73;12.77;;;;;;;;;;4994681;28;20042;-67
2022/05/28 05:31:44;;;;;;;23.92;14.50;;;;;;;;;;4993371;28;20073;-69
2022/05/28 05:34:10;;;;;;;20.02;11.68;;;;;;;;;;4994012;28;20038;-71
2022/05/28 05:36:36;;;;;;;16.02;12.35;;;;;;;;;;4994187;28;20034;-71
2022/05/28 05:39:03;;;;;;;17.65;12.35;;;;;;;;;;4993282;28;20037;-65
2022/05/28 05:41:29;;;;;;;20.52;13.30;;;;;;;;;;4993023;28;20026;-66
2022/05/28 05:43:54;;;;;;;19.48;12.02;;;;;;;;;;4992795;28;20046;-70
2022/05/28 05:46:20;;;;;;;21.55;11.45;;;;;;;;;;4992733;28;20132;-70
2022/05/28 05:48:46;;;;;;;19.00;12.13;;;;;;;;;;4992987;28;20050;-70
2022/05/28 05:51:15;;;;;;;22.63;12.77;;;;;;;;;;4993034;28;20104;-66
2022/05/28 05:53:42;;;;;;;18.80;11.57;;;;;;;;;;4992276;28;20030;-67
2022/05/28 05:56:09;;;;;;;24.45;12.20;;;;;;;;;;4992169;28;20032;-68
2022/05/28 05:58:35;;;;;;;20.75;11.18;;;;;;;;;;4988984;28;20106;-71
2022/05/28 06:01:05;;;;;;;19.25;10.95;;;;;;;;;;4990294;28;20018;-70
2022/05/28 06:03:31;;;;;;;13.30;10.48;;;;;;;;;;4988067;28;20500;-69
2022/05/28 06:06:02;;;;;;;18.55;13.63;;;;;;;;;;4986436;28;20026;-65
2022/05/28 06:08:29;;;;;;;16.20;10.32;;;;;;;;;;4992770;28;20049;-66
2022/05/28 06:10:55;;;;;;;19.17;11.05;;;;;;;;;;4993932;28;20489;-66
2022/05/28 06:13:21;;;;;;;15.45;9.68;;;;;;;;;;4993320;28;20035;-67
2022/05/28 06:15:47;;;;;;;16.77;9.90;;;;;;;;;;4993216;28;20496;-65
2022/05/28 06:18:14;;;;;;;17.58;10.30;;;;;;;;;;4993070;28;20030;-64
2022/05/28 06:20:40;;;;;;;15.85;10.20;;;;;;;;;;4990596;28;20482;-64
2022/05/28 06:23:06;;;;;;;15.73;10.95;;;;;;;;;;4991296;28;20562;-70
2022/05/28 06:25:32;;;;;;;23.23;9.95;;;;;;;;;;4989287;28;20061;-71
2022/05/28 06:27:58;;;;;;;14.43;10.10;;;;;;;;;;4991540;28;20066;-70
2022/05/28 06:30:25;;;;;;;18.85;10.23;;;;;;;;;;4990995;28;20537;-69
2022/05/28 06:32:51;;;;;;;17.08;10.38;;;;;;;;;;4992063;28;20042;-70
2022/05/28 06:35:17;;;;;;;18.17;10.35;;;;;;;;;;4988576;28;20042;-70
2022/05/28 06:37:43;;;;;;;18.02;10.85;;;;;;;;;;4981745;28;20042;-72
2022/05/28 06:40:09;;;;;;;16.42;9.35;;;;;;;;;;4990812;28;20050;-70
2022/05/28 06:42:35;;;;;;;16.38;10.40;;;;;;;;;;4991593;28;20030;-71
2022/05/28 06:45:01;;;;;;;15.98;9.68;;;;;;;;;;4991632;28;20034;-71
2022/05/28 06:47:27;;;;;;;17.25;9.60;;;;;;;;;;4990625;28;20061;-71
2022/05/28 06:52:37;;;;;;;19.83;9.50;;;;;;;;;;4990878;28;20073;-71
2022/05/28 06:55:04;;;;;;;17.95;9.38;;;;;;;;;;4992207;28;20489;-71
2022/05/28 06:57:30;;;;;;;16.50;9.60;;;;;;;;;;4991043;28;20038;-72
2022/05/28 06:59:58;;;;;;;18.17;9.52;;;;;;;;;;4989663;28;20458;-75
2022/05/28 07:02:24;;;;;;;17.27;8.95;;;;;;;;;;4989328;28;20034;-69
2022/05/28 07:04:50;;;;;;;19.10;10.27;;;;;;;;;;4991312;28;20022;-68
2022/05/28 07:07:15;;;;;;;18.88;9.80;;;;;;;;;;4992737;28;20458;-70
2022/05/28 07:09:41;;;;;;;14.70;9.15;;;;;;;;;;4991972;28;20726;-70
2022/05/28 07:12:08;;;;;;;20.08;9.55;;;;;;;;;;4992456;28;20057;-68
2022/05/28 07:14:34;;;;;;;20.85;9.48;;;;;;;;;;4991870;28;20061;-70
2022/05/28 07:16:59;;;;;;;16.35;9.52;;;;;;;;;;4990942;28;20624;-76
2022/05/28 07:19:25;;;;;;;15.80;9.27;;;;;;;;;;4990494;28;20077;-72
2022/05/28 07:21:51;;;;;;;14.85;9.30;;;;;;;;;;4991104;28;20046;-72
2022/05/28 07:24:17;;;;;;;16.95;9.25;;;;;;;;;;4992172;28;20034;-68
2022/05/28 07:26:43;;;;;;;13.95;9.27;;;;;;;;;;4992536;28;20081;-72
2022/05/28 07:29:09;;;;;;;17.95;9.32;;;;;;;;;;4991288;28;20393;-73
2022/05/28 07:31:35;;;;;;;14.82;8.65;;;;;;;;;;4991093;28;20424;-71
2022/05/28 07:34:01;;;;;;;18.70;9.48;;;;;;;;;;4991916;28;20085;-71
2022/05/28 07:36:27;;;;;;;10.18;8.48;;;;;;;;;;4991549;28;20026;-71
2022/05/28 07:38:53;;;;;;;13.38;9.07;;;;;;;;;;4989136;28;20034;-68
2022/05/28 07:41:22;;;;;;;16.58;8.55;;;;;;;;;;4986597;28;20073;-69
2022/05/28 07:43:50;;;;;;;15.52;9.20;;;;;;;;;;4992144;28;20085;-70
2022/05/28 07:46:23;;;;;;;15.48;8.93;;;;;;;;;;4984148;28;20046;-68
2022/05/28 07:48:50;;;;;;;22.20;9.65;;;;;;;;;;4989578;28;20038;-69
2022/05/28 07:51:16;;;;;;;18.50;8.88;;;;;;;;;;4995530;28;20062;-69
2022/05/28 07:53:42;;;;;;;15.82;9.15;;;;;;;;;;4994864;28;20031;-68
2022/05/28 07:56:09;;;;;;;15.02;8.48;;;;;;;;;;4995116;28;20029;-70
2022/05/28 07:58:35;;;;;;;13.63;8.20;;;;;;;;;;4995078;28;20042;-69
2022/05/28 08:01:04;;;;;;;12.35;8.45;;;;;;;;;;4992763;28;20049;-68
2022/05/28 08:03:30;;;;;;;15.93;8.90;;;;;;;;;;5008480;28;20041;-69
2022/05/28 08:05:57;;;;;;;16.13;9.25;;;;;;;;;;4992367;28;20027;-69
2022/05/28 08:08:26;;;;;;;15.50;8.48;;;;;;;;;;4994187;28;20460;-69
2022/05/28 08:10:53;;;;;;;13.05;7.93;;;;;;;;;;4994446;28;20041;-71
2022/05/28 08:13:22;;;;;;;13.73;7.93;;;;;;;;;;4991310;28;20154;-68
2022/05/28 08:15:50;;;;;;;13.70;8.93;;;;;;;;;;4992941;28;20030;-71
2022/05/28 08:18:19;;;;;;;19.55;8.55;;;;;;;;;;4991634;28;20074;-68
2022/05/28 08:23:30;;;;;;;18.10;8.50;;;;;;;;;;4994642;28;20042;-68
2022/05/28 08:25:56;;;;;;;14.90;8.27;;;;;;;;;;4992765;28;20022;-70
2022/05/28 08:28:22;;;;;;;22.75;8.55;;;;;;;;;;4994638;28;20049;-70
2022/05/28 08:30:48;;;;;;;13.60;8.07;;;;;;;;;;4995008;28;20500;-69
2022/05/28 08:33:16;;;;;;;11.43;7.85;;;;;;;;;;4994700;28;20140;-68
2022/05/28 08:35:43;;;;;;;12.05;7.30;;;;;;;;;;4993274;28;20045;-69
2022/05/28 08:38:15;;;;;;;16.25;8.35;;;;;;;;;;4994076;28;20397;-69
2022/05/28 08:40:48;;;;;;;15.52;7.55;;;;;;;;;;4994125;28;20049;-68
2022/05/28 08:43:15;;;;;;;;;;;;;;;;;;4994543;28;20358;-69
2022/05/28 08:45:42;;;;;;;17.80;7.53;;;;;;;;;;4994444;28;19913;-68
2022/05/28 08:48:08;;;;;;;19.17;8.30;;;;;;;;;;4993952;28;20058;-71
2022/05/28 08:50:48;;;;;;;14.32;6.90;;;;;;;;;;4993475;28;20129;-69
2022/05/28 08:53:19;;;;;;;12.55;6.88;;;;;;;;;;4994432;28;20104;-70
2022/05/28 08:55:49;;;;;;;14.70;7.40;;;;;;;;;;4994573;28;20041;-69
2022/05/28 08:58:19;;;;;;;13.48;7.07;;;;;;;;;;4994000;28;20034;-74
2022/05/28 09:00:50;;;;;;;12.85;7.25;;;;;;;;;;4993634;28;20037;-74
2022/05/28 09:03:24;;;;;;;12.43;6.30;;;;;;;;;;4993492;28;20030;-71
2022/05/28 09:05:49;;;;;;;14.65;7.00;;;;;;;;;;4991782;28;20477;-69
2022/05/28 09:08:26;;;;;;;13.70;6.93;;;;;;;;;;4993025;28;20022;-71
2022/05/28 09:10:54;;;;;;;10.80;6.35;;;;;;;;;;4993200;28;20465;-70
2022/05/28 09:13:35;;;;;;;13.48;6.50;;;;;;;;;;4994217;28;20026;-68
2022/05/28 09:16:03;;;;;;;13.07;6.88;;;;;;;;;;4993877;28;20100;-72
2022/05/28 09:18:36;;;;;;;11.73;6.75;;;;;;;;;;4993938;28;20038;-72
2022/05/28 09:21:03;;;;;;;13.40;6.60;;;;;;;;;;4992982;28;20034;-67
2022/05/28 09:23:41;;;;;;;15.13;6.95;;;;;;;;;;4992574;28;20037;-69
2022/05/28 09:26:08;;;;;;;14.02;6.78;;;;;;;;;;4993443;28;20050;-69
2022/05/28 09:28:45;;;;;;;13.80;6.82;;;;;;;;;;4992795;28;20427;-69
2022/05/28 09:31:26;;;;;;;13.90;6.95;;;;;;;;;;4992939;28;20093;-69
2022/05/28 09:34:06;;;;;;;12.40;6.10;;;;;;;;;;4993005;28;20035;-70
2022/05/28 09:36:45;;;;;;;9.40;6.30;;;;;;;;;;4993102;28;20041;-71
2022/05/28 09:39:19;;;;;;;12.77;6.18;;;;;;;;;;4993880;28;20140;-69
2022/05/28 09:42:02;;;;;;;14.88;6.18;;;;;;;;;;4992825;28;20029;-69
2022/05/28 09:44:29;;;;;;;14.18;6.68;;;;;;;;;;4992780;28;20043;-73
2022/05/28 09:47:12;;;;;;;17.88;7.93;;;;;;;;;;4992762;28;20032;-69
2022/05/28 09:49:53;;;;;;;14.57;6.57;;;;;;;;;;4993093;28;20062;-69
2022/05/28 09:52:28;;;;;;;11.88;6.95;;;;;;;;;;4991550;28;20469;-68
2022/05/28 09:55:15;;;;;;;17.83;7.28;;;;;;;;;;4992323;28;20038;-70
2022/05/28 09:58:00;;;;;;;11.13;6.28;;;;;;;;;;4992296;28;20117;-70
2022/05/28 10:00:27;;;;;;;11.02;7.13;;;;;;;;;;4992256;28;20045;-69
2022/05/28 10:05:56;;;;;;;18.35;6.97;;;;;;;;;;4992958;28;20038;-72
2022/05/28 10:08:30;;;;;;;11.70;7.10;;;;;;;;;;4992984;28;20034;-73
2022/05/28 10:11:01;;;;;;;20.23;6.95;;;;;;;;;;4992512;28;20389;-71
2022/05/28 10:13:30;;;;;;;15.25;6.72;;;;;;;;;;4992622;28;20038;-70
2022/05/28 10:16:01;;;;;;;10.38;5.55;;;;;;;;;;4992136;28;20050;-70
2022/05/28 10:18:49;;;;;;;9.35;5.60;;;;;;;;;;4992401;28;20136;-69
2022/05/28 10:21:28;;;;;;;11.77;5.35;;;;;;;;;;4978694;28;20039;-71
2022/05/28 10:23:57;;;;;;;15.45;6.15;;;;;;;;;;4992726;28;20038;-73
2022/05/28 10:26:31;;;;;;;21.42;6.00;;;;;;;;;;4991638;28;20026;-73
2022/05/28 10:29:02;;;;;;;13.95;6.50;;;;;;;;;;4990755;28;20108;-75
2022/05/28 10:31:31;;;;;;;18.45;6.00;;;;;;;;;;4992451;28;20034;-73
2022/05/28 10:33:58;;;;;;;11.15;6.72;;;;;;;;;;4991673;28;20123;-74
2022/05/28 10:36:27;;;;;;;14.73;7.10;;;;;;;;;;4991678;28;20034;-72
2022/05/28 10:39:11;;;;;;;17.20;7.40;;;;;;;;;;4991515;28;20030;-75
2022/05/28 10:41:38;;;;;;;14.07;6.68;;;;;;;;;;4991711;28;20034;-69
2022/05/28 10:44:05;;;;;;;13.85;6.60;;;;;;;;;;4990419;28;20030;-74
2022/05/28 10:47:02;;;;;;;13.25;6.40;;;;;;;;;;4991540;28;20030;-74
2022/05/28 10:49:27;;;;;;;18.98;7.00;;;;;;;;;;4991437;28;20104;-71
2022/05/28 10:52:25;;;;;;;16.52;6.63;;;;;;;;;;4984949;28;20113;-70
2022/05/28 10:55:09;;;;;;;13.27;6.95;;;;;;;;;;4991390;28;20034;-73
2022/05/28 10:58:12;;;;;;;18.27;10.40;;;;;;;;;;4991663;28;20038;-69
2022/05/28 11:00:56;;;;;;;13.00;6.00;;;;;;;;;;4991232;28;20085;-70
2022/05/28 11:03:33;;;;;;;15.35;6.80;;;;;;;;;;4989713;28;20038;-70
2022/05/28 11:06:27;;;;;;;15.55;6.93;;;;;;;;;;4991290;28;20093;-70
2022/05/28 11:08:52;;;;;;;12.65;6.18;;;;;;;;;;4991783;28;20034;-70
2022/05/28 11:11:18;;;;;;;12.77;6.00;;;;;;;;;;4991472;28;20022;-70
2022/05/28 11:14:19;;;;;;;15.25;5.85;;;;;;;;;;4992071;28;20535;-69
2022/05/28 11:16:54;;;;;;;15.43;6.45;;;;;;;;;;4974065;28;20057;-70
2022/05/28 11:19:31;;;;;;;11.77;5.88;;;;;;;;;;4990911;28;20035;-71
2022/05/28 11:22:33;;;;;;;10.38;5.68;;;;;;;;;;4992077;28;20062;-68
2022/05/28 11:25:30;;;;;;;20.00;6.07;;;;;;;;;;4989318;28;20469;-69
2022/05/28 11:28:07;;;;;;;17.08;7.95;;;;;;;;;;4980368;28;20074;-68
2022/05/28 11:30:40;;;;;;;12.45;6.25;;;;;;;;;;4996337;28;20100;-70
2022/05/28 11:33:25;;;;;;;15.05;5.88;;;;;;;;;;4996360;28;20081;-72
2022/05/28 11:36:08;;;;;;;14.40;5.82;;;;;;;;;;4996575;28;20038;-69
2022/05/28 11:38:56;;;;;;;14.13;6.03;;;;;;;;;;4996084;28;20122;-69
2022/05/28 11:41:31;;;;;;;15.10;5.68;;;;;;;;;;4996119;28;20108;-68
2022/05/28 11:44:21;;;;;;;16.08;5.97;;;;;;;;;;5015219;28;20469;-68
2022/05/28 11:47:08;;;;;;;20.20;6.78;;;;;;;;;;5015567;28;20471;-69
2022/05/28 11:53:16;;;;;;;14.30;5.43;;;;;;;;;;4981159;28;20053;-69
2022/05/28 11:55:45;;;;;;;10.57;5.97;;;;;;;;;;4976810;28;20034;-69
2022/05/28 11:58:21;;;;;;;22.83;8.52;;;;;;;;;;4976623;28;20236;-67
2022/05/28 12:00:55;;;;;;;11.60;6.30;;;;;;;;;;4976773;28;20030;-69
2022/05/28 12:03:24;;;;;;;14.52;5.88;;;;;;;;;;4976682;28;20035;-71
2022/05/28 12:06:02;;;;;;;12.68;6.00;;;;;;;;;;4976295;28;20033;-70
2022/05/28 12:08:34;;;;;;;8.20;5.78;;;;;;;;;;4975898;28;20034;-72
2022/05/28 12:11:02;;;;;;;;;;;;;;;;;;4976973;28;20043;-71
2022/05/28 12:13:40;;;;;;;13.68;6.25;;;;;;;;;;4976499;28;19913;-70
2022/05/28 12:16:09;;;;;;;17.10;6.40;;;;;;;;;;4976035;28;20040;-74
2022/05/28 12:18:35;;;;;;;12.57;5.47;;;;;;;;;;4976304;28;20037;-74
2022/05/28 12:21:01;;;;;;;16.13;5.90;;;;;;;;;;4976447;28;20030;-72
2022/05/28 12:24:10;;;;;;;11.43;5.55;;;;;;;;;;4976588;28;20027;-72
2022/05/28 12:26:49;;;;;;;14.63;5.43;;;;;;;;;;4973462;28;20065;-74
2022/05/28 12:29:33;;;;;;;16.92;5.63;;;;;;;;;;4993769;28;20034;-71
2022/05/28 12:32:17;;;;;;;16.48;6.10;;;;;;;;;;4992498;28;20038;-69
2022/05/28 12:34:59;;;;;;;22.27;10.73;;;;;;;;;;4994497;28;20173;-74
2022/05/28 12:37:45;;;;;;;14.98;5.55;;;;;;;;;;4995198;28;20049;-68
2022/05/28 12:40:29;;;;;;;13.95;5.50;;;;;;;;;;4995153;28;20035;-69
2022/05/28 12:43:11;;;;;;;18.25;9.90;;;;;;;;;;4994890;28;20027;-72
2022/05/28 12:45:40;;;;;;;14.73;6.55;;;;;;;;;;4994594;28;20039;-70
2022/05/28 12:48:15;;;;;;;17.42;6.93;;;;;;;;;;4994615;28;20030;-71
2022/05/28 12:50:51;;;;;;;16.55;5.63;;;;;;;;;;4994812;28;20034;-70
2022/05/28 12:53:20;;;;;;;15.95;5.60;;;;;;;;;;4994633;28;20493;-71
2022/05/28 12:55:57;;;;;;;12.63;4.88;;;;;;;;;;4994771;28;20105;-70
2022/05/28 12:58:23;;;;;;;10.98;5.63;;;;;;;;;;4995170;28;20069;-71
2022/05/28 13:00:54;;;;;;;12.15;5.28;;;;;;;;;;4994806;28;20483;-70
2022/05/28 13:03:22;;;;;;;14.85;5.03;;;;;;;;;;4994242;28;20031;-70
2022/05/28 13:05:52;;;;;;;11.57;5.45;;;;;;;;;;4994384;28;20133;-70
2022/05/28 13:08:28;;;;;;;11.85;5.10;;;;;;;;;;4994179;28;20481;-70
2022/05/28 13:10:58;;;;;;;12.35;4.93;;;;;;;;;;4994068;28;20031;-70
2022/05/28 13:13:29;;;;;;;9.48;5.28;;;;;;;;;;4993968;28;20532;-71
2022/05/28 13:16:29;;;;;;;10.77;4.75;;;;;;;;;;4994136;28;20445;-70
2022/05/28 13:19:39;;;;;;;12.32;5.18;;;;;;;;;;4994141;28;20034;-70
2022/05/28 13:22:44;;;;;;;11.15;5.20;;;;;;;;;;4985797;28;20050;-72
2022/05/28 13:25:35;;;;;;;14.68;5.20;;;;;;;;;;4991790;28;20047;-70
2022/05/28 13:28:12;;;;;;;13.35;4.88;;;;;;;;;;4994038;28;20407;-73
2022/05/28 13:30:42;;;;;;;12.80;5.22;;;;;;;;;;4994055;28;20136;-68
2022/05/28 13:33:14;;;;;;;13.15;5.05;;;;;;;;;;4993791;28;20037;-69
2022/05/28 13:35:52;;;;;;;12.60;4.88;;;;;;;;;;4993967;28;20415;-69
2022/05/28 13:38:24;;;;;;;8.48;4.68;;;;;;;;;;4993911;28;20073;-68
2022/05/28 13:40:50;;;;;;;10.40;4.70;;;;;;;;;;4994295;28;20138;-69
2022/05/28 13:43:25;;;;;;;8.07;4.82;;;;;;;;;;4993958;28;20430;-70
2022/05/28 13:45:58;;;;;;;12.10;4.97;;;;;;;;;;4993332;28;20058;-70
2022/05/28 13:48:26;;;;;;;11.30;5.38;;;;;;;;;;4992558;28;20042;-71
2022/05/28 13:50:55;;;;;;;12.43;4.70;;;;;;;;;;4992549;28;20216;-70
2022/05/28 13:53:24;;;;;;;11.55;5.00;;;;;;;;;;4993906;28;20061;-71
2022/05/28 13:55:59;;;;;;;12.15;5.50;;;;;;;;;;4993586;28;20366;-68
2022/05/28 13:58:30;;;;;;;13.40;5.30;;;;;;;;;;4993237;28;20101;-68
2022/05/28 14:01:03;;;;;;;10.45;5.28;;;;;;;;;;4993741;28;20507;-73
2022/05/28 14:03:34;;;;;;;15.57;6.05;;;;;;;;;;4993566;28;20041;-73
2022/05/28 14:06:02;;;;;;;9.27;5.30;;;;;;;;;;4993815;28;20042;-70
2022/05/28 14:08:41;;;;;;;13.55;5.60;;;;;;;;;;4993609;28;20030;-69
2022/05/28 14:11:19;;;;;;;17.10;5.07;;;;;;;;;;4993487;28;20489;-70
2022/05/28 14:14:06;;;;;;;16.38;5.55;;;;;;;;;;4993171;28;20035;-69
2022/05/28 14:16:37;;;;;;;12.82;5.72;;;;;;;;;;4993111;28;20031;-69
2022/05/28 14:19:07;;;;;;;11.55;5.53;;;;;;;;;;4993393;28;20026;-69
2022/05/28 14:21:47;;;;;;;14.60;6.80;;;;;;;;;;4993327;28;20034;-67
2022/05/28 14:24:27;;;;;;;8.95;5.70;;;;;;;;;;4993311;28;20038;-72
2022/05/28 14:26:56;;;;;;;10.15;5.47;;;;;;;;;;4992849;28;20038;-71
2022/05/28 14:29:28;;;;;;;13.43;6.03;;;;;;;;;;4993284;28;20466;-70
2022/05/28 14:31:55;;;;;;;11.52;5.40;;;;;;;;;;4993048;28;20036;-72
2022/05/28 14:34:22;;;;;;;10.07;4.63;;;;;;;;;;4992790;28;20057;-69
2022/05/28 14:36:51;;;;;;;10.55;5.47;;;;;;;;;;4992589;28;20041;-70
2022/05/28 14:39:17;;;;;;;9.90;5.13;;;;;;;;;;4992024;28;20026;-72
2022/05/28 14:41:54;;;;;;;12.65;6.05;;;;;;;;;;4992679;28;20036;-73
2022/05/28 14:44:25;;;;;;;10.00;5.85;;;;;;;;;;4992422;28;20113;-70
2022/05/28 14:46:53;;;;;;;9.15;5.43;;;;;;;;;;4991687;28;20374;-71
2022/05/28 14:49:22;;;;;;;14.65;6.05;;;;;;;;;;4992952;28;20101;-70
2022/05/28 14:51:48;;;;;;;11.30;5.35;;;;;;;;;;4992041;28;20027;-69
2022/05/28 14:54:29;;;;;;;16.58;6.10;;;;;;;;;;4991546;28;20038;-68
2022/05/28 14:56:55;;;;;;;9.32;5.55;;;;;;;;;;4989667;28;20026;-70
2022/05/28 14:59:34;;;;;;;12.77;5.40;;;;;;;;;;4990858;28;20057;-69
2022/05/28 15:02:16;;;;;;;12.48;5.40;;;;;;;;;;4991537;28;20026;-70